Terminal Aerodrome Forecast
Issued by NWS

Home | Current Version | Previous Version | Text Only | Print | Product List | Glossary On
Versions: 1 2 3 4 5 6 7 8 9 10 11 12 13 14 15 16 17
732
FTUS43 KEAX 211029 AAA
TAFMKC
TAF AMD
KMKC 211029Z 2110/2206 30005KT P6SM FEW150
     FM211500 29006KT P6SM SKC=

USA.gov is the U.S. government's official web portal to all federal, state and local government web resources and services.